Lechlade, United Kingdom
Current Conditions -  °F | °C
As of 1:08 AM on Saturday 29 Nov 2014 (Local Time) from EGVA Reporting Station
Overcast Overcast  
Wind Chill: 50°   Ceiling: 8000
Heat Index: 50°   Visibility: 6mi
Dew Point: 50°   Wind: 7mph
Humidity: 100%   Direction: 60°ENE
Pressure: 29.71"   Gusts: NA
Location:  51.69°N, 1.69°W
Report Text: EGVA 290108Z AUTO 06006KT 9999 SCT005 BKN080 OVC100 10/10 A2971 RMK AO2 RAE0108 $
Loading
Personal Weather Stations






























Interactive Weather Map New forecast layout! Learn more

10-Day Weather Forecast

Advertisements
Track Severe Weather on mobile